sensor_id;sensor_type;location;lat;lon;timestamp;pressure;altitude;pressure_sealevel;temperature;humidity
66627;BME280;53498;50.422;14.912;2023-12-28T00:00:12;-24117.75;;;3.61;100.00
66627;BME280;53498;50.422;14.912;2023-12-28T00:02:58;-24113.41;;;3.46;100.00
66627;BME280;53498;50.422;14.912;2023-12-28T00:05:23;-24118.22;;;3.62;100.00
66627;BME280;53498;50.422;14.912;2023-12-28T00:07:49;-24117.75;;;3.61;100.00
66627;BME280;53498;50.422;14.912;2023-12-28T00:10:22;-24116.81;;;3.58;100.00
66627;BME280;53498;50.422;14.912;2023-12-28T00:12:48;-24115.91;;;3.55;100.00
66627;BME280;53498;50.422;14.912;2023-12-28T00:15:13;-24114.97;;;3.52;100.00
66627;BME280;53498;50.422;14.912;2023-12-28T00:17:39;-24116.19;;;3.56;100.00
66627;BME280;53498;50.422;14.912;2023-12-28T00:20:05;-24116.06;;;3.55;100.00
66627;BME280;53498;50.422;14.912;2023-12-28T00:22:31;-24112.03;;;3.42;100.00
66627;BME280;53498;50.422;14.912;2023-12-28T00:25:00;-24109.84;;;3.35;100.00
66627;BME280;53498;50.422;14.912;2023-12-28T00:27:26;-24113.41;;;3.46;100.00
66627;BME280;53498;50.422;14.912;2023-12-28T00:29:51;-24111.56;;;3.40;100.00
66627;BME280;53498;50.422;14.912;2023-12-28T00:32:17;-24109.09;;;3.32;100.00
66627;BME280;53498;50.422;14.912;2023-12-28T00:34:42;-24106.28;;;3.23;100.00
66627;BME280;53498;50.422;14.912;2023-12-28T00:37:08;-24104.44;;;3.17;100.00
66627;BME280;53498;50.422;14.912;2023-12-28T00:39:33;-24103.34;;;3.13;100.00
66627;BME280;53498;50.422;14.912;2023-12-28T00:42:00;-24103.50;;;3.14;100.00
66627;BME280;53498;50.422;14.912;2023-12-28T00:44:26;-24102.09;;;3.09;100.00
66627;BME280;53498;50.422;14.912;2023-12-28T00:46:52;-24100.09;;;3.03;100.00
66627;BME280;53498;50.422;14.912;2023-12-28T00:49:17;-24105.19;;;3.19;100.00
66627;BME280;53498;50.422;14.912;2023-12-28T00:51:43;-24107.84;;;3.28;100.00
66627;BME280;53498;50.422;14.912;2023-12-28T00:54:08;-24108.16;;;3.29;100.00
66627;BME280;53498;50.422;14.912;2023-12-28T00:56:34;-24103.50;;;3.14;100.00
66627;BME280;53498;50.422;14.912;2023-12-28T00:58:59;-24107.84;;;3.28;100.00
66627;BME280;53498;50.422;14.912;2023-12-28T01:01:30;-24108.63;;;3.31;100.00
66627;BME280;53498;50.422;14.912;2023-12-28T01:03:58;-24104.13;;;3.16;100.00
66627;BME280;53498;50.422;14.912;2023-12-28T01:06:24;-24105.38;;;3.20;100.00
66627;BME280;53498;50.422;14.912;2023-12-28T01:08:57;-24106.13;;;3.22;100.00
66627;BME280;53498;50.422;14.912;2023-12-28T01:11:22;-24104.91;;;3.18;100.00
66627;BME280;53498;50.422;14.912;2023-12-28T01:13:48;-24105.97;;;3.22;100.00
66627;BME280;53498;50.422;14.912;2023-12-28T01:16:13;-24104.28;;;3.16;100.00
66627;BME280;53498;50.422;14.912;2023-12-28T01:18:39;-24103.34;;;3.13;100.00
66627;BME280;53498;50.422;14.912;2023-12-28T01:21:05;-24102.72;;;3.11;100.00
66627;BME280;53498;50.422;14.912;2023-12-28T01:23:32;-24101.78;;;3.08;100.00
66627;BME280;53498;50.422;14.912;2023-12-28T01:25:57;-24099.47;;;3.00;100.00
66627;BME280;53498;50.422;14.912;2023-12-28T01:28:23;-24099.94;;;3.02;100.00
66627;BME280;53498;50.422;14.912;2023-12-28T01:30:49;-24096.84;;;2.92;100.00
66627;BME280;53498;50.422;14.912;2023-12-28T01:33:14;-24094.50;;;2.84;100.00
66627;BME280;53498;50.422;14.912;2023-12-28T01:35:41;-24094.19;;;2.83;100.00
66627;BME280;53498;50.422;14.912;2023-12-28T01:38:07;-24092.97;;;2.79;100.00
66627;BME280;53498;50.422;14.912;2023-12-28T01:40:32;-24093.56;;;2.81;100.00
66627;BME280;53498;50.422;14.912;2023-12-28T01:42:58;-24094.81;;;2.85;100.00
66627;BME280;53498;50.422;14.912;2023-12-28T01:45:37;-24093.44;;;2.81;100.00
66627;BME280;53498;50.422;14.912;2023-12-28T01:48:02;-24087.22;;;2.60;100.00
66627;BME280;53498;50.422;14.912;2023-12-28T01:50:30;-24082.41;;;2.44;100.00
66627;BME280;53498;50.422;14.912;2023-12-28T01:52:58;-24086.44;;;2.58;100.00
66627;BME280;53498;50.422;14.912;2023-12-28T01:55:26;-24090.78;;;2.72;100.00
66627;BME280;53498;50.422;14.912;2023-12-28T01:57:52;-24088.94;;;2.66;100.00
66627;BME280;53498;50.422;14.912;2023-12-28T02:00:17;-24090.31;;;2.70;100.00
66627;BME280;53498;50.422;14.912;2023-12-28T02:02:44;-24088.16;;;2.63;100.00
66627;BME280;53498;50.422;14.912;2023-12-28T02:05:10;-24080.88;;;2.39;100.00
66627;BME280;53498;50.422;14.912;2023-12-28T02:07:38;-24085.19;;;2.53;100.00
66627;BME280;53498;50.422;14.912;2023-12-28T02:10:03;-24082.56;;;2.45;100.00
66627;BME280;53498;50.422;14.912;2023-12-28T02:12:29;-24081.31;;;2.41;100.00
66627;BME280;53498;50.422;14.912;2023-12-28T02:14:55;-24074.97;;;2.20;100.00
66627;BME280;53498;50.422;14.912;2023-12-28T02:17:43;-24073.09;;;2.14;100.00
66627;BME280;53498;50.422;14.912;2023-12-28T02:20:12;-24076.53;;;2.25;100.00
66627;BME280;53498;50.422;14.912;2023-12-28T02:22:39;-24078.38;;;2.31;100.00
66627;BME280;53498;50.422;14.912;2023-12-28T02:25:12;-24075.75;;;2.22;100.00
66627;BME280;53498;50.422;14.912;2023-12-28T02:27:40;-24071.56;;;2.08;100.00
66627;BME280;53498;50.422;14.912;2023-12-28T02:30:07;-24076.38;;;2.24;100.00
66627;BME280;53498;50.422;14.912;2023-12-28T02:35:17;-24077.59;;;2.28;100.00
66627;BME280;53498;50.422;14.912;2023-12-28T02:37:48;-24074.34;;;2.18;100.00
66627;BME280;53498;50.422;14.912;2023-12-28T02:40:16;-24065.03;;;1.87;100.00
66627;BME280;53498;50.422;14.912;2023-12-28T02:42:43;-24067.69;;;1.96;100.00
66627;BME280;53498;50.422;14.912;2023-12-28T02:45:09;-24069.53;;;2.02;100.00
66627;BME280;53498;50.422;14.912;2023-12-28T02:47:34;-24077.75;;;2.29;100.00
66627;BME280;53498;50.422;14.912;2023-12-28T02:50:00;-24078.22;;;2.30;100.00
66627;BME280;53498;50.422;14.912;2023-12-28T02:52:25;-24078.06;;;2.30;100.00
66627;BME280;53498;50.422;14.912;2023-12-28T02:54:51;-24079.94;;;2.36;100.00
66627;BME280;53498;50.422;14.912;2023-12-28T02:57:17;-24086.44;;;2.58;100.00
66627;BME280;53498;50.422;14.912;2023-12-28T02:59:46;-24089.25;;;2.67;100.00
66627;BME280;53498;50.422;14.912;2023-12-28T03:02:12;-24091.25;;;2.73;100.00
66627;BME280;53498;50.422;14.912;2023-12-28T03:04:37;-24088.78;;;2.65;100.00
66627;BME280;53498;50.422;14.912;2023-12-28T03:07:04;-24084.59;;;2.51;100.00
66627;BME280;53498;50.422;14.912;2023-12-28T03:09:30;-24083.97;;;2.49;100.00
66627;BME280;53498;50.422;14.912;2023-12-28T03:11:56;-24084.13;;;2.50;100.00
66627;BME280;53498;50.422;14.912;2023-12-28T03:14:21;-24085.38;;;2.54;100.00
66627;BME280;53498;50.422;14.912;2023-12-28T03:16:47;-24081.31;;;2.41;100.00
66627;BME280;53498;50.422;14.912;2023-12-28T03:19:12;-24074.66;;;2.19;100.00
66627;BME280;53498;50.422;14.912;2023-12-28T03:21:39;-24065.66;;;1.89;100.00
66627;BME280;53498;50.422;14.912;2023-12-28T03:24:05;-24067.06;;;1.94;100.00
66627;BME280;53498;50.422;14.912;2023-12-28T03:26:31;-24074.50;;;2.18;100.00
66627;BME280;53498;50.422;14.912;2023-12-28T03:28:56;-24078.69;;;2.32;100.00
66627;BME280;53498;50.422;14.912;2023-12-28T03:31:22;-24083.66;;;2.48;100.00
66627;BME280;53498;50.422;14.912;2023-12-28T03:33:48;-24078.06;;;2.30;100.00
66627;BME280;53498;50.422;14.912;2023-12-28T03:36:20;-24070.47;;;2.05;100.00
66627;BME280;53498;50.422;14.912;2023-12-28T03:38:46;-24073.09;;;2.14;100.00
66627;BME280;53498;50.422;14.912;2023-12-28T03:41:20;-24076.53;;;2.25;100.00
66627;BME280;53498;50.422;14.912;2023-12-28T03:43:46;-24077.00;;;2.26;100.00
66627;BME280;53498;50.422;14.912;2023-12-28T03:46:12;-24081.16;;;2.40;100.00
66627;BME280;53498;50.422;14.912;2023-12-28T03:48:38;-24081.78;;;2.42;100.00
66627;BME280;53498;50.422;14.912;2023-12-28T03:51:05;-24080.88;;;2.39;100.00
66627;BME280;53498;50.422;14.912;2023-12-28T03:53:30;-24082.09;;;2.43;100.00
66627;BME280;53498;50.422;14.912;2023-12-28T03:55:59;-24074.97;;;2.20;100.00
66627;BME280;53498;50.422;14.912;2023-12-28T03:58:25;-24071.41;;;2.08;100.00
66627;BME280;53498;50.422;14.912;2023-12-28T04:00:51;-24072.03;;;2.10;100.00
66627;BME280;53498;50.422;14.912;2023-12-28T04:03:17;-24068.31;;;1.98;100.00
66627;BME280;53498;50.422;14.912;2023-12-28T04:05:43;-24070.00;;;2.03;100.00
66627;BME280;53498;50.422;14.912;2023-12-28T04:08:08;-24076.66;;;2.25;100.00
66627;BME280;53498;50.422;14.912;2023-12-28T04:10:34;-24078.84;;;2.33;100.00
66627;BME280;53498;50.422;14.912;2023-12-28T04:12:59;-24080.88;;;2.39;100.00
66627;BME280;53498;50.422;14.912;2023-12-28T04:15:26;-24084.44;;;2.51;100.00
66627;BME280;53498;50.422;14.912;2023-12-28T04:17:51;-24080.41;;;2.38;100.00
66627;BME280;53498;50.422;14.912;2023-12-28T04:20:17;-24080.56;;;2.38;100.00
66627;BME280;53498;50.422;14.912;2023-12-28T04:22:43;-24080.88;;;2.39;100.00
66627;BME280;53498;50.422;14.912;2023-12-28T04:25:09;-24082.25;;;2.44;100.00
66627;BME280;53498;50.422;14.912;2023-12-28T04:27:35;-24081.16;;;2.40;100.00
66627;BME280;53498;50.422;14.912;2023-12-28T04:30:01;-24078.22;;;2.30;100.00
66627;BME280;53498;50.422;14.912;2023-12-28T04:32:26;-24081.78;;;2.42;100.00
66627;BME280;53498;50.422;14.912;2023-12-28T04:34:53;-24080.88;;;2.39;100.00
66627;BME280;53498;50.422;14.912;2023-12-28T04:37:19;-24080.88;;;2.39;100.00
66627;BME280;53498;50.422;14.912;2023-12-28T04:39:45;-24082.25;;;2.44;100.00
66627;BME280;53498;50.422;14.912;2023-12-28T04:42:11;-24077.91;;;2.29;100.00
66627;BME280;53498;50.422;14.912;2023-12-28T04:44:39;-24077.13;;;2.27;100.00
66627;BME280;53498;50.422;14.912;2023-12-28T04:47:05;-24076.22;;;2.24;100.00
66627;BME280;53498;50.422;14.912;2023-12-28T04:49:31;-24077.91;;;2.29;100.00
66627;BME280;53498;50.422;14.912;2023-12-28T04:51:56;-24073.88;;;2.16;100.00
66627;BME280;53498;50.422;14.912;2023-12-28T04:54:22;-24079.31;;;2.34;100.00
66627;BME280;53498;50.422;14.912;2023-12-28T04:56:48;-24080.25;;;2.37;100.00
66627;BME280;53498;50.422;14.912;2023-12-28T04:59:14;-24074.97;;;2.20;100.00
66627;BME280;53498;50.422;14.912;2023-12-28T05:01:43;-24073.41;;;2.15;100.00
66627;BME280;53498;50.422;14.912;2023-12-28T05:04:09;-24072.34;;;2.11;100.00
66627;BME280;53498;50.422;14.912;2023-12-28T05:06:35;-24072.03;;;2.10;100.00
66627;BME280;53498;50.422;14.912;2023-12-28T05:09:01;-24078.53;;;2.31;100.00
66627;BME280;53498;50.422;14.912;2023-12-28T05:11:26;-24078.06;;;2.30;100.00
66627;BME280;53498;50.422;14.912;2023-12-28T05:13:53;-24079.63;;;2.35;100.00
66627;BME280;53498;50.422;14.912;2023-12-28T05:16:19;-24078.84;;;2.33;100.00
66627;BME280;53498;50.422;14.912;2023-12-28T05:18:46;-24074.19;;;2.17;100.00
66627;BME280;53498;50.422;14.912;2023-12-28T05:21:12;-24079.00;;;2.33;100.00
66627;BME280;53498;50.422;14.912;2023-12-28T05:23:37;-24074.97;;;2.20;100.00
66627;BME280;53498;50.422;14.912;2023-12-28T05:26:03;-24078.69;;;2.32;100.00
66627;BME280;53498;50.422;14.912;2023-12-28T05:28:29;-24084.13;;;2.50;100.00
66627;BME280;53498;50.422;14.912;2023-12-28T05:30:54;-24083.34;;;2.47;100.00
66627;BME280;53498;50.422;14.912;2023-12-28T05:33:20;-24083.03;;;2.46;100.00
66627;BME280;53498;50.422;14.912;2023-12-28T05:35:46;-24070.94;;;2.06;100.00
66627;BME280;53498;50.422;14.912;2023-12-28T05:38:11;-24074.97;;;2.20;100.00
66627;BME280;53498;50.422;14.912;2023-12-28T05:40:37;-24079.31;;;2.34;100.00
66627;BME280;53498;50.422;14.912;2023-12-28T05:43:03;-24081.94;;;2.43;100.00
66627;BME280;53498;50.422;14.912;2023-12-28T05:45:28;-24080.88;;;2.39;100.00
66627;BME280;53498;50.422;14.912;2023-12-28T05:47:54;-24079.31;;;2.34;100.00
66627;BME280;53498;50.422;14.912;2023-12-28T05:50:19;-24077.00;;;2.26;100.00
66627;BME280;53498;50.422;14.912;2023-12-28T05:52:45;-24074.34;;;2.18;100.00
66627;BME280;53498;50.422;14.912;2023-12-28T05:55:11;-24066.13;;;1.91;100.00
66627;BME280;53498;50.422;14.912;2023-12-28T05:57:37;-24069.38;;;2.01;100.00
66627;BME280;53498;50.422;14.912;2023-12-28T06:00:03;-24073.09;;;2.14;100.00
66627;BME280;53498;50.422;14.912;2023-12-28T06:02:30;-24068.13;;;1.97;100.00
66627;BME280;53498;50.422;14.912;2023-12-28T06:04:55;-24064.41;;;1.85;100.00
66627;BME280;53498;50.422;14.912;2023-12-28T06:07:21;-24066.59;;;1.92;100.00
66627;BME280;53498;50.422;14.912;2023-12-28T06:09:46;-24065.50;;;1.89;100.00
66627;BME280;53498;50.422;14.912;2023-12-28T06:12:15;-24062.41;;;1.78;100.00
66627;BME280;53498;50.422;14.912;2023-12-28T06:14:41;-24064.41;;;1.85;100.00
66627;BME280;53498;50.422;14.912;2023-12-28T06:17:07;-24063.03;;;1.80;100.00
66627;BME280;53498;50.422;14.912;2023-12-28T06:19:32;-24061.63;;;1.76;100.00
66627;BME280;53498;50.422;14.912;2023-12-28T06:21:58;-24061.63;;;1.76;100.00
66627;BME280;53498;50.422;14.912;2023-12-28T06:24:24;-24069.53;;;2.02;100.00
66627;BME280;53498;50.422;14.912;2023-12-28T06:26:50;-24068.13;;;1.97;100.00
66627;BME280;53498;50.422;14.912;2023-12-28T06:29:16;-24074.34;;;2.18;100.00
66627;BME280;53498;50.422;14.912;2023-12-28T06:31:41;-24076.06;;;2.23;100.00
66627;BME280;53498;50.422;14.912;2023-12-28T06:34:07;-24076.06;;;2.23;100.00
66627;BME280;53498;50.422;14.912;2023-12-28T06:36:33;-24079.47;;;2.35;100.00
66627;BME280;53498;50.422;14.912;2023-12-28T06:38:59;-24078.69;;;2.32;100.00
66627;BME280;53498;50.422;14.912;2023-12-28T06:41:25;-24084.13;;;2.50;100.00
66627;BME280;53498;50.422;14.912;2023-12-28T06:43:51;-24088.31;;;2.64;100.00
66627;BME280;53498;50.422;14.912;2023-12-28T06:46:18;-24081.94;;;2.43;100.00
66627;BME280;53498;50.422;14.912;2023-12-28T06:48:44;-24086.75;;;2.59;100.00
66627;BME280;53498;50.422;14.912;2023-12-28T06:51:15;-24090.16;;;2.70;100.00
66627;BME280;53498;50.422;14.912;2023-12-28T06:53:41;-24086.13;;;2.57;100.00
66627;BME280;53498;50.422;14.912;2023-12-28T06:56:07;-24085.19;;;2.53;100.00
66627;BME280;53498;50.422;14.912;2023-12-28T06:58:32;-24084.44;;;2.51;100.00
66627;BME280;53498;50.422;14.912;2023-12-28T07:00:58;-24087.69;;;2.62;100.00
66627;BME280;53498;50.422;14.912;2023-12-28T07:03:24;-24081.47;;;2.41;100.00
66627;BME280;53498;50.422;14.912;2023-12-28T07:05:51;-24086.28;;;2.57;100.00
66627;BME280;53498;50.422;14.912;2023-12-28T07:08:17;-24091.72;;;2.75;100.00
66627;BME280;53498;50.422;14.912;2023-12-28T07:10:43;-24091.09;;;2.73;100.00
66627;BME280;53498;50.422;14.912;2023-12-28T07:13:08;-24095.13;;;2.86;100.00
66627;BME280;53498;50.422;14.912;2023-12-28T07:15:34;-24089.53;;;2.68;100.00
66627;BME280;53498;50.422;14.912;2023-12-28T07:18:01;-24092.03;;;2.76;100.00
66627;BME280;53498;50.422;14.912;2023-12-28T07:20:26;-24093.28;;;2.80;100.00
66627;BME280;53498;50.422;14.912;2023-12-28T07:22:52;-24098.69;;;2.98;100.00
66627;BME280;53498;50.422;14.912;2023-12-28T07:25:18;-24098.84;;;2.98;100.00
66627;BME280;53498;50.422;14.912;2023-12-28T07:27:43;-24096.53;;;2.91;100.00
66627;BME280;53498;50.422;14.912;2023-12-28T07:30:09;-24103.97;;;3.15;100.00
66627;BME280;53498;50.422;14.912;2023-12-28T07:32:35;-24106.91;;;3.25;100.00
66627;BME280;53498;50.422;14.912;2023-12-28T07:35:01;-24105.81;;;3.21;100.00
66627;BME280;53498;50.422;14.912;2023-12-28T07:37:26;-24105.19;;;3.19;100.00
66627;BME280;53498;50.422;14.912;2023-12-28T07:39:52;-24109.09;;;3.32;100.00
66627;BME280;53498;50.422;14.912;2023-12-28T07:42:18;-24106.13;;;3.22;100.00
66627;BME280;53498;50.422;14.912;2023-12-28T07:44:44;-24107.38;;;3.27;100.00
66627;BME280;53498;50.422;14.912;2023-12-28T07:47:10;-24110.16;;;3.36;100.00
66627;BME280;53498;50.422;14.912;2023-12-28T07:49:37;-24109.22;;;3.33;100.00
66627;BME280;53498;50.422;14.912;2023-12-28T07:52:02;-24105.97;;;3.22;100.00
66627;BME280;53498;50.422;14.912;2023-12-28T07:54:28;-24105.38;;;3.20;100.00
66627;BME280;53498;50.422;14.912;2023-12-28T07:56:54;-24108.75;;;3.31;100.00
66627;BME280;53498;50.422;14.912;2023-12-28T07:59:19;-24105.38;;;3.20;100.00
66627;BME280;53498;50.422;14.912;2023-12-28T08:01:45;-24108.00;;;3.29;100.00
66627;BME280;53498;50.422;14.912;2023-12-28T08:04:11;-24107.84;;;3.28;100.00
66627;BME280;53498;50.422;14.912;2023-12-28T08:06:36;-24107.22;;;3.26;100.00
66627;BME280;53498;50.422;14.912;2023-12-28T08:09:02;-24103.97;;;3.15;100.00
66627;BME280;53498;50.422;14.912;2023-12-28T08:11:28;-24106.13;;;3.22;100.00
66627;BME280;53498;50.422;14.912;2023-12-28T08:13:53;-24107.69;;;3.28;100.00
66627;BME280;53498;50.422;14.912;2023-12-28T08:16:19;-24110.16;;;3.36;100.00
66627;BME280;53498;50.422;14.912;2023-12-28T08:18:46;-24110.00;;;3.35;100.00
66627;BME280;53498;50.422;14.912;2023-12-28T08:21:12;-24109.38;;;3.33;100.00
66627;BME280;53498;50.422;14.912;2023-12-28T08:23:38;-24113.41;;;3.46;100.00
66627;BME280;53498;50.422;14.912;2023-12-28T08:26:03;-24105.03;;;3.19;100.00
66627;BME280;53498;50.422;14.912;2023-12-28T08:28:31;-24106.28;;;3.23;100.00
66627;BME280;53498;50.422;14.912;2023-12-28T08:30:56;-24105.66;;;3.21;100.00
66627;BME280;53498;50.422;14.912;2023-12-28T08:33:22;-24107.84;;;3.28;100.00
66627;BME280;53498;50.422;14.912;2023-12-28T08:35:48;-24109.38;;;3.33;100.00
66627;BME280;53498;50.422;14.912;2023-12-28T08:38:13;-24110.78;;;3.38;100.00
66627;BME280;53498;50.422;14.912;2023-12-28T08:40:39;-24103.97;;;3.15;100.00
66627;BME280;53498;50.422;14.912;2023-12-28T08:43:05;-24110.63;;;3.37;100.00
66627;BME280;53498;50.422;14.912;2023-12-28T08:45:30;-24112.19;;;3.42;100.00
66627;BME280;53498;50.422;14.912;2023-12-28T08:47:56;-24113.88;;;3.48;100.00
66627;BME280;53498;50.422;14.912;2023-12-28T08:50:22;-24119.63;;;3.67;100.00
66627;BME280;53498;50.422;14.912;2023-12-28T08:52:48;-24116.19;;;3.56;100.00
66627;BME280;53498;50.422;14.912;2023-12-28T08:55:13;-24118.22;;;3.62;100.00
66627;BME280;53498;50.422;14.912;2023-12-28T08:57:39;-24122.41;;;3.76;100.00
66627;BME280;53498;50.422;14.912;2023-12-28T09:00:06;-24121.00;;;3.71;100.00
66627;BME280;53498;50.422;14.912;2023-12-28T09:02:32;-24121.78;;;3.74;100.00
66627;BME280;53498;50.422;14.912;2023-12-28T09:05:03;-24118.53;;;3.63;100.00
66627;BME280;53498;50.422;14.912;2023-12-28T09:07:29;-24112.94;;;3.45;100.00
66627;BME280;53498;50.422;14.912;2023-12-28T09:09:58;-24114.66;;;3.51;100.00
66627;BME280;53498;50.422;14.912;2023-12-28T09:12:24;-24119.31;;;3.66;100.00
66627;BME280;53498;50.422;14.912;2023-12-28T09:14:49;-24119.78;;;3.67;100.00
66627;BME280;53498;50.422;14.912;2023-12-28T09:17:21;-24121.31;;;3.72;100.00
66627;BME280;53498;50.422;14.912;2023-12-28T09:19:46;-24119.63;;;3.67;100.00
66627;BME280;53498;50.422;14.912;2023-12-28T09:22:12;-24116.06;;;3.55;100.00
66627;BME280;53498;50.422;14.912;2023-12-28T09:24:43;-24120.84;;;3.71;100.00
66627;BME280;53498;50.422;14.912;2023-12-28T09:27:09;-24120.22;;;3.69;100.00
66627;BME280;53498;50.422;14.912;2023-12-28T09:29:35;-24118.53;;;3.63;100.00
66627;BME280;53498;50.422;14.912;2023-12-28T09:32:01;-24119.63;;;3.67;100.00
66627;BME280;53498;50.422;14.912;2023-12-28T09:34:26;-24124.56;;;3.83;100.00
66627;BME280;53498;50.422;14.912;2023-12-28T09:36:52;-24125.97;;;3.88;100.00
66627;BME280;53498;50.422;14.912;2023-12-28T09:39:17;-24127.50;;;3.93;100.00
66627;BME280;53498;50.422;14.912;2023-12-28T09:41:47;-24125.19;;;3.85;100.00
66627;BME280;53498;50.422;14.912;2023-12-28T09:44:15;-24121.94;;;3.75;100.00
66627;BME280;53498;50.422;14.912;2023-12-28T09:46:42;-24126.13;;;3.88;100.00
66627;BME280;53498;50.422;14.912;2023-12-28T09:49:10;-24128.91;;;3.98;100.00
66627;BME280;53498;50.422;14.912;2023-12-28T09:51:36;-24126.75;;;3.90;100.00
66627;BME280;53498;50.422;14.912;2023-12-28T09:54:05;-24129.22;;;3.99;100.00
66627;BME280;53498;50.422;14.912;2023-12-28T09:56:34;-24129.06;;;3.98;100.00
66627;BME280;53498;50.422;14.912;2023-12-28T09:59:02;-24129.06;;;3.98;100.00
66627;BME280;53498;50.422;14.912;2023-12-28T10:01:28;-24129.22;;;3.99;100.00
66627;BME280;53498;50.422;14.912;2023-12-28T10:03:53;-24133.41;;;4.12;100.00
66627;BME280;53498;50.422;14.912;2023-12-28T10:06:19;-24134.94;;;4.17;100.00
66627;BME280;53498;50.422;14.912;2023-12-28T10:08:47;-24136.03;;;4.21;100.00
66627;BME280;53498;50.422;14.912;2023-12-28T10:11:19;-24139.59;;;4.33;100.00
66627;BME280;53498;50.422;14.912;2023-12-28T10:13:45;-24138.19;;;4.28;100.00
66627;BME280;53498;50.422;14.912;2023-12-28T10:16:12;-24135.88;;;4.21;100.00
66627;BME280;53498;50.422;14.912;2023-12-28T10:18:44;-24137.88;;;4.27;100.00
66627;BME280;53498;50.422;14.912;2023-12-28T10:21:10;-24140.66;;;4.36;100.00
66627;BME280;53498;50.422;14.912;2023-12-28T10:23:36;-24141.59;;;4.39;100.00
66627;BME280;53498;50.422;14.912;2023-12-28T10:26:04;-24141.13;;;4.38;100.00
66627;BME280;53498;50.422;14.912;2023-12-28T10:28:34;-24139.44;;;4.32;100.00
66627;BME280;53498;50.422;14.912;2023-12-28T10:31:00;-24142.69;;;4.43;100.00
66627;BME280;53498;50.422;14.912;2023-12-28T10:33:26;-24146.09;;;4.54;100.00
66627;BME280;53498;50.422;14.912;2023-12-28T10:35:52;-24148.88;;;4.63;100.00
66627;BME280;53498;50.422;14.912;2023-12-28T10:38:18;-24149.97;;;4.67;100.00
66627;BME280;53498;50.422;14.912;2023-12-28T10:40:45;-24149.66;;;4.66;100.00
66627;BME280;53498;50.422;14.912;2023-12-28T10:43:14;-24151.50;;;4.72;100.00
66627;BME280;53498;50.422;14.912;2023-12-28T10:45:41;-24150.09;;;4.68;100.00
66627;BME280;53498;50.422;14.912;2023-12-28T10:48:12;-24147.47;;;4.59;100.00
66627;BME280;53498;50.422;14.912;2023-12-28T10:50:57;-24149.19;;;4.64;100.00
66627;BME280;53498;50.422;14.912;2023-12-28T10:53:38;-24147.78;;;4.60;100.00
66627;BME280;53498;50.422;14.912;2023-12-28T11:02:02;-24147.78;;;4.60;100.00
66627;BME280;53498;50.422;14.912;2023-12-28T11:04:40;-24147.16;;;4.58;100.00
66627;BME280;53498;50.422;14.912;2023-12-28T11:07:09;-24146.56;;;4.56;100.00
66627;BME280;53498;50.422;14.912;2023-12-28T11:09:37;-24147.47;;;4.59;100.00
66627;BME280;53498;50.422;14.912;2023-12-28T11:12:07;-24151.03;;;4.71;100.00
66627;BME280;53498;50.422;14.912;2023-12-28T11:14:33;-24151.97;;;4.74;100.00
66627;BME280;53498;50.422;14.912;2023-12-28T11:16:59;-24154.28;;;4.81;100.00
66627;BME280;53498;50.422;14.912;2023-12-28T11:19:27;-24153.66;;;4.79;100.00
66627;BME280;53498;50.422;14.912;2023-12-28T11:21:54;-24153.66;;;4.79;100.00
66627;BME280;53498;50.422;14.912;2023-12-28T11:24:21;-24156.13;;;4.87;100.00
66627;BME280;53498;50.422;14.912;2023-12-28T11:26:54;-24158.16;;;4.94;100.00
66627;BME280;53498;50.422;14.912;2023-12-28T11:29:21;-24159.22;;;4.98;100.00
66627;BME280;53498;50.422;14.912;2023-12-28T11:31:54;-24158.31;;;4.95;100.00
66627;BME280;53498;50.422;14.912;2023-12-28T11:34:27;-24159.41;;;4.98;100.00
66627;BME280;53498;50.422;14.912;2023-12-28T11:36:56;-24160.31;;;5.01;100.00
66627;BME280;53498;50.422;14.912;2023-12-28T11:39:33;-24159.53;;;4.99;100.00
66627;BME280;53498;50.422;14.912;2023-12-28T11:42:03;-24161.72;;;5.06;100.00
66627;BME280;53498;50.422;14.912;2023-12-28T11:44:30;-24162.00;;;5.07;100.00
66627;BME280;53498;50.422;14.912;2023-12-28T11:46:56;-24164.03;;;5.14;100.00
66627;BME280;53498;50.422;14.912;2023-12-28T11:49:26;-24161.88;;;5.06;100.00
66627;BME280;53498;50.422;14.912;2023-12-28T11:51:56;-24165.41;;;5.18;100.00
66627;BME280;53498;50.422;14.912;2023-12-28T11:54:24;-24162.94;;;5.10;100.00
66627;BME280;53498;50.422;14.912;2023-12-28T11:56:51;-24167.28;;;5.24;100.00
66627;BME280;53498;50.422;14.912;2023-12-28T11:59:18;-24166.19;;;5.21;100.00
66627;BME280;53498;50.422;14.912;2023-12-28T12:01:52;-24166.19;;;5.21;100.00
66627;BME280;53498;50.422;14.912;2023-12-28T12:04:18;-24166.19;;;5.21;100.00
66627;BME280;53498;50.422;14.912;2023-12-28T12:06:48;-24167.28;;;5.24;100.00
66627;BME280;53498;50.422;14.912;2023-12-28T12:09:16;-24169.75;;;5.32;100.00
66627;BME280;53498;50.422;14.912;2023-12-28T12:11:45;-24166.81;;;5.23;100.00
66627;BME280;53498;50.422;14.912;2023-12-28T12:14:11;-24167.28;;;5.24;100.00
66627;BME280;53498;50.422;14.912;2023-12-28T12:16:37;-24169.91;;;5.33;100.00
66627;BME280;53498;50.422;14.912;2023-12-28T12:19:06;-24172.53;;;5.42;100.00
66627;BME280;53498;50.422;14.912;2023-12-28T12:21:33;-24173.63;;;5.45;100.00
66627;BME280;53498;50.422;14.912;2023-12-28T12:24:11;-24174.84;;;5.49;100.00
66627;BME280;53498;50.422;14.912;2023-12-28T12:26:37;-24175.47;;;5.51;100.00
66627;BME280;53498;50.422;14.912;2023-12-28T12:29:03;-24176.41;;;5.54;100.00
66627;BME280;53498;50.422;14.912;2023-12-28T12:31:29;-24176.09;;;5.53;100.00
66627;BME280;53498;50.422;14.912;2023-12-28T12:33:55;-24177.47;;;5.58;100.00
66627;BME280;53498;50.422;14.912;2023-12-28T12:36:21;-24178.72;;;5.62;100.00
66627;BME280;53498;50.422;14.912;2023-12-28T12:38:47;-24178.41;;;5.61;100.00
66627;BME280;53498;50.422;14.912;2023-12-28T12:41:13;-24178.72;;;5.62;100.00
66627;BME280;53498;50.422;14.912;2023-12-28T12:43:40;-24180.56;;;5.68;100.00
66627;BME280;53498;50.422;14.912;2023-12-28T12:46:06;-24181.81;;;5.72;100.00